sensor_id;sensor_type;location;lat;lon;timestamp;P1;durP1;ratioP1;P2;durP2;ratioP2
59555;SDS011;45374;52.746;6.304;2023-05-07T00:00:02;42.65;;;25.50;;
59555;SDS011;45374;52.746;6.304;2023-05-07T00:02:29;39.47;;;24.92;;
59555;SDS011;45374;52.746;6.304;2023-05-07T00:04:54;46.95;;;26.55;;
59555;SDS011;45374;52.746;6.304;2023-05-07T00:07:20;41.80;;;25.30;;
59555;SDS011;45374;52.746;6.304;2023-05-07T00:09:46;43.45;;;26.45;;
59555;SDS011;45374;52.746;6.304;2023-05-07T00:12:11;40.90;;;25.23;;
59555;SDS011;45374;52.746;6.304;2023-05-07T00:14:37;40.60;;;24.90;;
59555;SDS011;45374;52.746;6.304;2023-05-07T00:17:02;46.85;;;27.17;;
59555;SDS011;45374;52.746;6.304;2023-05-07T00:19:28;48.30;;;27.50;;
59555;SDS011;45374;52.746;6.304;2023-05-07T00:21:53;44.88;;;25.95;;
59555;SDS011;45374;52.746;6.304;2023-05-07T00:24:20;43.20;;;25.90;;
59555;SDS011;45374;52.746;6.304;2023-05-07T00:26:46;42.72;;;25.42;;
59555;SDS011;45374;52.746;6.304;2023-05-07T00:29:11;39.90;;;25.45;;
59555;SDS011;45374;52.746;6.304;2023-05-07T00:31:37;37.42;;;24.80;;
59555;SDS011;45374;52.746;6.304;2023-05-07T00:34:02;40.35;;;24.77;;
59555;SDS011;45374;52.746;6.304;2023-05-07T00:36:28;44.15;;;26.13;;
59555;SDS011;45374;52.746;6.304;2023-05-07T00:38:54;40.63;;;25.17;;
59555;SDS011;45374;52.746;6.304;2023-05-07T00:41:22;41.90;;;26.25;;
59555;SDS011;45374;52.746;6.304;2023-05-07T00:43:47;39.97;;;25.95;;
59555;SDS011;45374;52.746;6.304;2023-05-07T00:46:13;42.63;;;25.50;;
59555;SDS011;45374;52.746;6.304;2023-05-07T00:48:39;40.95;;;25.38;;
59555;SDS011;45374;52.746;6.304;2023-05-07T00:51:05;41.08;;;24.80;;
59555;SDS011;45374;52.746;6.304;2023-05-07T00:53:31;42.15;;;25.63;;
59555;SDS011;45374;52.746;6.304;2023-05-07T00:55:56;40.70;;;25.63;;
59555;SDS011;45374;52.746;6.304;2023-05-07T00:58:22;39.10;;;24.13;;
59555;SDS011;45374;52.746;6.304;2023-05-07T01:00:48;43.83;;;26.35;;
59555;SDS011;45374;52.746;6.304;2023-05-07T01:03:15;41.80;;;25.23;;
59555;SDS011;45374;52.746;6.304;2023-05-07T01:05:40;39.67;;;24.38;;
59555;SDS011;45374;52.746;6.304;2023-05-07T01:08:07;38.47;;;25.00;;
59555;SDS011;45374;52.746;6.304;2023-05-07T01:10:33;36.47;;;24.45;;
59555;SDS011;45374;52.746;6.304;2023-05-07T01:12:59;39.72;;;24.45;;
59555;SDS011;45374;52.746;6.304;2023-05-07T01:15:25;37.17;;;23.65;;
59555;SDS011;45374;52.746;6.304;2023-05-07T01:17:51;36.42;;;23.02;;
59555;SDS011;45374;52.746;6.304;2023-05-07T01:20:17;38.80;;;23.73;;
59555;SDS011;45374;52.746;6.304;2023-05-07T01:22:43;37.97;;;23.42;;
59555;SDS011;45374;52.746;6.304;2023-05-07T01:25:09;32.95;;;22.15;;
59555;SDS011;45374;52.746;6.304;2023-05-07T01:27:35;35.25;;;21.20;;
59555;SDS011;45374;52.746;6.304;2023-05-07T01:30:02;35.83;;;20.63;;
59555;SDS011;45374;52.746;6.304;2023-05-07T01:32:39;28.55;;;17.73;;
59555;SDS011;45374;52.746;6.304;2023-05-07T01:35:10;29.33;;;18.85;;
59555;SDS011;45374;52.746;6.304;2023-05-07T01:37:37;29.67;;;18.15;;
59555;SDS011;45374;52.746;6.304;2023-05-07T01:40:04;30.92;;;18.08;;
59555;SDS011;45374;52.746;6.304;2023-05-07T01:42:32;30.38;;;18.83;;
59555;SDS011;45374;52.746;6.304;2023-05-07T01:44:59;30.20;;;18.38;;
59555;SDS011;45374;52.746;6.304;2023-05-07T01:47:25;29.85;;;18.90;;
59555;SDS011;45374;52.746;6.304;2023-05-07T01:49:51;29.38;;;18.90;;
59555;SDS011;45374;52.746;6.304;2023-05-07T01:52:17;27.15;;;18.52;;
59555;SDS011;45374;52.746;6.304;2023-05-07T01:54:43;27.40;;;18.17;;
59555;SDS011;45374;52.746;6.304;2023-05-07T01:57:08;26.70;;;18.17;;
59555;SDS011;45374;52.746;6.304;2023-05-07T01:59:34;28.95;;;17.00;;
59555;SDS011;45374;52.746;6.304;2023-05-07T02:02:00;27.90;;;18.10;;
59555;SDS011;45374;52.746;6.304;2023-05-07T02:04:25;27.90;;;18.05;;
59555;SDS011;45374;52.746;6.304;2023-05-07T02:06:51;27.15;;;19.15;;
59555;SDS011;45374;52.746;6.304;2023-05-07T02:09:17;27.92;;;19.13;;
59555;SDS011;45374;52.746;6.304;2023-05-07T02:11:43;30.33;;;20.50;;
59555;SDS011;45374;52.746;6.304;2023-05-07T02:14:09;32.30;;;19.98;;
59555;SDS011;45374;52.746;6.304;2023-05-07T02:16:35;33.00;;;21.30;;
59555;SDS011;45374;52.746;6.304;2023-05-07T02:19:01;37.33;;;22.05;;
59555;SDS011;45374;52.746;6.304;2023-05-07T02:21:27;37.28;;;22.58;;
59555;SDS011;45374;52.746;6.304;2023-05-07T02:23:53;38.05;;;23.23;;
59555;SDS011;45374;52.746;6.304;2023-05-07T02:26:19;35.33;;;22.20;;
59555;SDS011;45374;52.746;6.304;2023-05-07T02:28:45;32.83;;;21.75;;
59555;SDS011;45374;52.746;6.304;2023-05-07T02:31:11;36.67;;;23.25;;
59555;SDS011;45374;52.746;6.304;2023-05-07T02:33:36;34.42;;;22.55;;
59555;SDS011;45374;52.746;6.304;2023-05-07T02:36:05;37.72;;;23.73;;
59555;SDS011;45374;52.746;6.304;2023-05-07T02:38:32;38.10;;;23.02;;
59555;SDS011;45374;52.746;6.304;2023-05-07T02:40:57;34.65;;;22.70;;
59555;SDS011;45374;52.746;6.304;2023-05-07T02:43:23;36.50;;;22.88;;
59555;SDS011;45374;52.746;6.304;2023-05-07T02:45:48;37.95;;;23.48;;
59555;SDS011;45374;52.746;6.304;2023-05-07T02:48:14;36.72;;;24.02;;
59555;SDS011;45374;52.746;6.304;2023-05-07T02:50:40;37.95;;;23.65;;
59555;SDS011;45374;52.746;6.304;2023-05-07T02:53:05;36.55;;;24.30;;
59555;SDS011;45374;52.746;6.304;2023-05-07T02:55:31;36.47;;;23.35;;
59555;SDS011;45374;52.746;6.304;2023-05-07T02:57:57;36.80;;;22.90;;
59555;SDS011;45374;52.746;6.304;2023-05-07T03:00:22;39.83;;;24.33;;
59555;SDS011;45374;52.746;6.304;2023-05-07T03:02:48;37.38;;;24.25;;
59555;SDS011;45374;52.746;6.304;2023-05-07T03:05:14;37.30;;;23.70;;
59555;SDS011;45374;52.746;6.304;2023-05-07T03:07:40;39.45;;;24.48;;
59555;SDS011;45374;52.746;6.304;2023-05-07T03:10:09;37.03;;;23.67;;
59555;SDS011;45374;52.746;6.304;2023-05-07T03:12:34;38.63;;;24.77;;
59555;SDS011;45374;52.746;6.304;2023-05-07T03:15:00;40.88;;;25.73;;
59555;SDS011;45374;52.746;6.304;2023-05-07T03:17:29;39.40;;;25.23;;
59555;SDS011;45374;52.746;6.304;2023-05-07T03:19:54;40.53;;;24.90;;
59555;SDS011;45374;52.746;6.304;2023-05-07T03:22:20;40.13;;;25.55;;
59555;SDS011;45374;52.746;6.304;2023-05-07T03:24:45;42.20;;;25.13;;
59555;SDS011;45374;52.746;6.304;2023-05-07T03:27:11;43.95;;;26.08;;
59555;SDS011;45374;52.746;6.304;2023-05-07T03:29:37;41.53;;;25.92;;
59555;SDS011;45374;52.746;6.304;2023-05-07T03:32:02;41.63;;;25.65;;
59555;SDS011;45374;52.746;6.304;2023-05-07T03:34:28;43.05;;;25.95;;
59555;SDS011;45374;52.746;6.304;2023-05-07T03:36:53;39.13;;;25.73;;
59555;SDS011;45374;52.746;6.304;2023-05-07T03:39:19;40.85;;;26.02;;
59555;SDS011;45374;52.746;6.304;2023-05-07T03:41:45;41.72;;;25.98;;
59555;SDS011;45374;52.746;6.304;2023-05-07T03:44:22;42.30;;;26.80;;
59555;SDS011;45374;52.746;6.304;2023-05-07T03:46:48;40.67;;;26.35;;
59555;SDS011;45374;52.746;6.304;2023-05-07T03:49:13;43.33;;;26.85;;
59555;SDS011;45374;52.746;6.304;2023-05-07T03:54:58;44.88;;;26.30;;
59555;SDS011;45374;52.746;6.304;2023-05-07T03:57:42;46.97;;;27.77;;
59555;SDS011;45374;52.746;6.304;2023-05-07T04:00:07;44.03;;;27.15;;
59555;SDS011;45374;52.746;6.304;2023-05-07T04:02:33;43.28;;;26.90;;
59555;SDS011;45374;52.746;6.304;2023-05-07T04:04:59;45.72;;;27.73;;
59555;SDS011;45374;52.746;6.304;2023-05-07T04:07:25;45.17;;;27.80;;
59555;SDS011;45374;52.746;6.304;2023-05-07T04:09:51;47.47;;;27.98;;
59555;SDS011;45374;52.746;6.304;2023-05-07T04:12:16;44.47;;;28.05;;
59555;SDS011;45374;52.746;6.304;2023-05-07T04:14:42;47.92;;;27.98;;
59555;SDS011;45374;52.746;6.304;2023-05-07T04:17:22;50.08;;;29.33;;
59555;SDS011;45374;52.746;6.304;2023-05-07T04:19:48;48.00;;;29.33;;
59555;SDS011;45374;52.746;6.304;2023-05-07T04:22:13;50.08;;;30.33;;
59555;SDS011;45374;52.746;6.304;2023-05-07T04:24:39;51.72;;;30.60;;
59555;SDS011;45374;52.746;6.304;2023-05-07T04:27:04;51.35;;;30.38;;
59555;SDS011;45374;52.746;6.304;2023-05-07T04:29:31;49.80;;;29.65;;
59555;SDS011;45374;52.746;6.304;2023-05-07T04:31:56;54.58;;;31.10;;
59555;SDS011;45374;52.746;6.304;2023-05-07T04:34:23;52.20;;;29.63;;
59555;SDS011;45374;52.746;6.304;2023-05-07T04:36:49;52.22;;;29.98;;
59555;SDS011;45374;52.746;6.304;2023-05-07T04:39:14;54.38;;;32.00;;
59555;SDS011;45374;52.746;6.304;2023-05-07T04:41:40;54.28;;;32.47;;
59555;SDS011;45374;52.746;6.304;2023-05-07T04:44:05;51.95;;;30.02;;
59555;SDS011;45374;52.746;6.304;2023-05-07T04:46:31;52.95;;;31.33;;
59555;SDS011;45374;52.746;6.304;2023-05-07T04:48:57;56.95;;;31.95;;
59555;SDS011;45374;52.746;6.304;2023-05-07T04:51:22;51.85;;;32.03;;
59555;SDS011;45374;52.746;6.304;2023-05-07T04:53:48;56.05;;;31.92;;
59555;SDS011;45374;52.746;6.304;2023-05-07T04:58:58;57.67;;;32.95;;
59555;SDS011;45374;52.746;6.304;2023-05-07T05:01:24;57.45;;;32.83;;
59555;SDS011;45374;52.746;6.304;2023-05-07T05:03:50;57.17;;;32.45;;
59555;SDS011;45374;52.746;6.304;2023-05-07T05:06:15;53.63;;;32.58;;
59555;SDS011;45374;52.746;6.304;2023-05-07T05:08:41;53.97;;;32.03;;
59555;SDS011;45374;52.746;6.304;2023-05-07T05:11:06;55.92;;;33.13;;
59555;SDS011;45374;52.746;6.304;2023-05-07T05:13:32;54.25;;;32.63;;
59555;SDS011;45374;52.746;6.304;2023-05-07T05:15:57;58.70;;;32.83;;
59555;SDS011;45374;52.746;6.304;2023-05-07T05:18:23;51.90;;;31.45;;
59555;SDS011;45374;52.746;6.304;2023-05-07T05:20:48;59.42;;;33.58;;
59555;SDS011;45374;52.746;6.304;2023-05-07T05:23:14;52.72;;;32.92;;
59555;SDS011;45374;52.746;6.304;2023-05-07T05:25:40;54.63;;;31.90;;
59555;SDS011;45374;52.746;6.304;2023-05-07T05:28:05;59.40;;;33.05;;
59555;SDS011;45374;52.746;6.304;2023-05-07T05:30:31;56.60;;;32.60;;
59555;SDS011;45374;52.746;6.304;2023-05-07T05:32:56;51.60;;;31.55;;
59555;SDS011;45374;52.746;6.304;2023-05-07T05:35:22;55.35;;;32.47;;
59555;SDS011;45374;52.746;6.304;2023-05-07T05:37:47;55.75;;;32.85;;
59555;SDS011;45374;52.746;6.304;2023-05-07T05:40:13;55.65;;;32.97;;
59555;SDS011;45374;52.746;6.304;2023-05-07T05:42:38;60.70;;;33.15;;
59555;SDS011;45374;52.746;6.304;2023-05-07T05:45:04;51.67;;;31.00;;
59555;SDS011;45374;52.746;6.304;2023-05-07T05:47:30;47.97;;;29.73;;
59555;SDS011;45374;52.746;6.304;2023-05-07T05:49:58;49.10;;;30.65;;
59555;SDS011;45374;52.746;6.304;2023-05-07T05:52:23;48.47;;;29.35;;
59555;SDS011;45374;52.746;6.304;2023-05-07T05:54:50;51.83;;;30.63;;
59555;SDS011;45374;52.746;6.304;2023-05-07T05:57:15;49.40;;;30.83;;
59555;SDS011;45374;52.746;6.304;2023-05-07T05:59:43;47.88;;;29.67;;
59555;SDS011;45374;52.746;6.304;2023-05-07T06:02:09;45.42;;;30.13;;
59555;SDS011;45374;52.746;6.304;2023-05-07T06:04:34;48.90;;;30.35;;
59555;SDS011;45374;52.746;6.304;2023-05-07T06:07:00;45.50;;;29.17;;
59555;SDS011;45374;52.746;6.304;2023-05-07T06:09:25;48.40;;;29.10;;
59555;SDS011;45374;52.746;6.304;2023-05-07T06:11:51;45.22;;;29.42;;
59555;SDS011;45374;52.746;6.304;2023-05-07T06:14:16;42.72;;;27.58;;
59555;SDS011;45374;52.746;6.304;2023-05-07T06:16:42;46.80;;;28.45;;
59555;SDS011;45374;52.746;6.304;2023-05-07T06:19:08;46.42;;;28.50;;
59555;SDS011;45374;52.746;6.304;2023-05-07T06:21:34;48.42;;;27.88;;
59555;SDS011;45374;52.746;6.304;2023-05-07T06:24:00;45.78;;;28.98;;
59555;SDS011;45374;52.746;6.304;2023-05-07T06:26:31;47.10;;;29.52;;
59555;SDS011;45374;52.746;6.304;2023-05-07T06:29:01;42.78;;;27.27;;
59555;SDS011;45374;52.746;6.304;2023-05-07T06:31:29;42.40;;;27.38;;
59555;SDS011;45374;52.746;6.304;2023-05-07T06:33:55;47.78;;;28.00;;
59555;SDS011;45374;52.746;6.304;2023-05-07T06:36:21;42.03;;;28.48;;
59555;SDS011;45374;52.746;6.304;2023-05-07T06:38:46;42.22;;;27.20;;
59555;SDS011;45374;52.746;6.304;2023-05-07T06:41:12;41.65;;;27.58;;
59555;SDS011;45374;52.746;6.304;2023-05-07T06:43:38;44.05;;;28.40;;
59555;SDS011;45374;52.746;6.304;2023-05-07T06:46:03;41.42;;;27.75;;
59555;SDS011;45374;52.746;6.304;2023-05-07T06:48:29;42.63;;;27.30;;
59555;SDS011;45374;52.746;6.304;2023-05-07T06:50:54;42.78;;;26.40;;
59555;SDS011;45374;52.746;6.304;2023-05-07T06:53:22;42.38;;;26.58;;
59555;SDS011;45374;52.746;6.304;2023-05-07T06:55:54;40.13;;;26.15;;
59555;SDS011;45374;52.746;6.304;2023-05-07T06:58:20;40.28;;;26.58;;
59555;SDS011;45374;52.746;6.304;2023-05-07T07:00:45;44.78;;;28.70;;
59555;SDS011;45374;52.746;6.304;2023-05-07T07:03:11;44.83;;;27.63;;
59555;SDS011;45374;52.746;6.304;2023-05-07T07:05:36;38.97;;;27.77;;
59555;SDS011;45374;52.746;6.304;2023-05-07T07:08:02;42.90;;;28.15;;
59555;SDS011;45374;52.746;6.304;2023-05-07T07:10:28;39.45;;;26.88;;
59555;SDS011;45374;52.746;6.304;2023-05-07T07:12:53;41.13;;;27.90;;
59555;SDS011;45374;52.746;6.304;2023-05-07T07:15:19;43.75;;;27.42;;
59555;SDS011;45374;52.746;6.304;2023-05-07T07:17:45;40.80;;;27.13;;
59555;SDS011;45374;52.746;6.304;2023-05-07T07:20:11;41.70;;;27.73;;
59555;SDS011;45374;52.746;6.304;2023-05-07T07:22:38;42.00;;;27.70;;
59555;SDS011;45374;52.746;6.304;2023-05-07T07:25:03;39.35;;;27.42;;
59555;SDS011;45374;52.746;6.304;2023-05-07T07:27:30;40.92;;;27.65;;
59555;SDS011;45374;52.746;6.304;2023-05-07T07:29:58;43.08;;;26.55;;
59555;SDS011;45374;52.746;6.304;2023-05-07T07:32:23;41.00;;;27.35;;
59555;SDS011;45374;52.746;6.304;2023-05-07T07:34:49;39.83;;;26.77;;
59555;SDS011;45374;52.746;6.304;2023-05-07T07:37:15;41.90;;;26.75;;
59555;SDS011;45374;52.746;6.304;2023-05-07T07:39:40;42.78;;;27.10;;
59555;SDS011;45374;52.746;6.304;2023-05-07T07:42:06;39.13;;;26.30;;
59555;SDS011;45374;52.746;6.304;2023-05-07T07:44:31;42.40;;;27.98;;
59555;SDS011;45374;52.746;6.304;2023-05-07T07:46:57;41.08;;;27.85;;
59555;SDS011;45374;52.746;6.304;2023-05-07T07:49:22;43.08;;;28.40;;
59555;SDS011;45374;52.746;6.304;2023-05-07T07:51:48;41.58;;;27.65;;
59555;SDS011;45374;52.746;6.304;2023-05-07T07:54:13;41.55;;;27.23;;
59555;SDS011;45374;52.746;6.304;2023-05-07T07:56:39;38.88;;;27.10;;
59555;SDS011;45374;52.746;6.304;2023-05-07T07:59:04;39.08;;;26.75;;
59555;SDS011;45374;52.746;6.304;2023-05-07T08:01:30;40.65;;;28.17;;
59555;SDS011;45374;52.746;6.304;2023-05-07T08:03:56;39.75;;;26.98;;
59555;SDS011;45374;52.746;6.304;2023-05-07T08:06:23;41.80;;;27.48;;
59555;SDS011;45374;52.746;6.304;2023-05-07T08:08:50;40.83;;;27.35;;
59555;SDS011;45374;52.746;6.304;2023-05-07T08:11:16;42.72;;;28.50;;
59555;SDS011;45374;52.746;6.304;2023-05-07T08:13:42;38.80;;;27.95;;
59555;SDS011;45374;52.746;6.304;2023-05-07T08:16:08;40.63;;;27.33;;
59555;SDS011;45374;52.746;6.304;2023-05-07T08:18:33;42.17;;;27.60;;
59555;SDS011;45374;52.746;6.304;2023-05-07T08:20:59;43.15;;;29.58;;
59555;SDS011;45374;52.746;6.304;2023-05-07T08:23:24;39.85;;;27.33;;
59555;SDS011;45374;52.746;6.304;2023-05-07T08:25:50;41.90;;;28.05;;
59555;SDS011;45374;52.746;6.304;2023-05-07T08:28:16;41.55;;;28.30;;
59555;SDS011;45374;52.746;6.304;2023-05-07T08:30:42;41.40;;;28.15;;
59555;SDS011;45374;52.746;6.304;2023-05-07T08:33:08;42.38;;;28.25;;
59555;SDS011;45374;52.746;6.304;2023-05-07T08:35:34;41.92;;;28.45;;
59555;SDS011;45374;52.746;6.304;2023-05-07T08:38:00;40.80;;;28.55;;
59555;SDS011;45374;52.746;6.304;2023-05-07T08:40:26;41.95;;;28.02;;
59555;SDS011;45374;52.746;6.304;2023-05-07T08:42:53;44.75;;;28.60;;
59555;SDS011;45374;52.746;6.304;2023-05-07T08:45:19;41.78;;;28.58;;
59555;SDS011;45374;52.746;6.304;2023-05-07T08:47:54;43.88;;;28.55;;
59555;SDS011;45374;52.746;6.304;2023-05-07T08:50:23;40.15;;;28.23;;
59555;SDS011;45374;52.746;6.304;2023-05-07T08:52:49;43.00;;;28.48;;
59555;SDS011;45374;52.746;6.304;2023-05-07T08:57:45;42.03;;;27.83;;
59555;SDS011;45374;52.746;6.304;2023-05-07T09:00:12;49.05;;;29.98;;
59555;SDS011;45374;52.746;6.304;2023-05-07T09:02:38;40.35;;;27.25;;
59555;SDS011;45374;52.746;6.304;2023-05-07T09:05:03;44.13;;;30.33;;
59555;SDS011;45374;52.746;6.304;2023-05-07T09:07:30;42.08;;;28.92;;
59555;SDS011;45374;52.746;6.304;2023-05-07T09:09:55;42.17;;;28.77;;
59555;SDS011;45374;52.746;6.304;2023-05-07T09:12:22;43.75;;;29.15;;
59555;SDS011;45374;52.746;6.304;2023-05-07T09:14:47;42.05;;;28.90;;
59555;SDS011;45374;52.746;6.304;2023-05-07T09:17:14;40.25;;;27.75;;
59555;SDS011;45374;52.746;6.304;2023-05-07T09:19:43;38.90;;;28.50;;
59555;SDS011;45374;52.746;6.304;2023-05-07T09:22:12;41.33;;;28.30;;
59555;SDS011;45374;52.746;6.304;2023-05-07T09:24:38;43.17;;;28.70;;
59555;SDS011;45374;52.746;6.304;2023-05-07T09:27:04;43.55;;;27.92;;
59555;SDS011;45374;52.746;6.304;2023-05-07T09:29:30;39.83;;;27.27;;
59555;SDS011;45374;52.746;6.304;2023-05-07T09:32:03;38.75;;;27.35;;
59555;SDS011;45374;52.746;6.304;2023-05-07T09:34:32;39.08;;;27.42;;
59555;SDS011;45374;52.746;6.304;2023-05-07T09:36:58;41.17;;;28.75;;
59555;SDS011;45374;52.746;6.304;2023-05-07T09:42:06;38.45;;;26.85;;
59555;SDS011;45374;52.746;6.304;2023-05-07T09:44:32;37.15;;;27.48;;
59555;SDS011;45374;52.746;6.304;2023-05-07T09:46:58;37.67;;;27.38;;
59555;SDS011;45374;52.746;6.304;2023-05-07T09:49:25;39.08;;;26.50;;
59555;SDS011;45374;52.746;6.304;2023-05-07T09:51:57;39.83;;;27.08;;
59555;SDS011;45374;52.746;6.304;2023-05-07T09:54:25;38.53;;;26.20;;
59555;SDS011;45374;52.746;6.304;2023-05-07T09:56:55;37.35;;;27.27;;
59555;SDS011;45374;52.746;6.304;2023-05-07T09:59:21;38.08;;;27.40;;
59555;SDS011;45374;52.746;6.304;2023-05-07T10:01:49;37.13;;;26.23;;
59555;SDS011;45374;52.746;6.304;2023-05-07T10:04:17;35.60;;;26.65;;
59555;SDS011;45374;52.746;6.304;2023-05-07T10:06:43;35.03;;;26.15;;
59555;SDS011;45374;52.746;6.304;2023-05-07T10:09:09;38.20;;;26.05;;
59555;SDS011;45374;52.746;6.304;2023-05-07T10:11:36;36.75;;;27.08;;
59555;SDS011;45374;52.746;6.304;2023-05-07T10:14:02;34.75;;;26.33;;
59555;SDS011;45374;52.746;6.304;2023-05-07T10:16:30;37.55;;;26.63;;
59555;SDS011;45374;52.746;6.304;2023-05-07T10:18:58;37.28;;;26.25;;
59555;SDS011;45374;52.746;6.304;2023-05-07T10:21:24;34.50;;;24.80;;
59555;SDS011;45374;52.746;6.304;2023-05-07T10:23:55;33.58;;;24.83;;
59555;SDS011;45374;52.746;6.304;2023-05-07T10:26:30;35.10;;;24.73;;
59555;SDS011;45374;52.746;6.304;2023-05-07T10:29:00;33.40;;;24.70;;
59555;SDS011;45374;52.746;6.304;2023-05-07T10:31:40;33.50;;;24.27;;
59555;SDS011;45374;52.746;6.304;2023-05-07T10:34:19;34.00;;;24.80;;
59555;SDS011;45374;52.746;6.304;2023-05-07T10:36:51;33.50;;;25.17;;
59555;SDS011;45374;52.746;6.304;2023-05-07T10:39:18;35.10;;;25.15;;
59555;SDS011;45374;52.746;6.304;2023-05-07T10:41:45;33.58;;;24.75;;
59555;SDS011;45374;52.746;6.304;2023-05-07T10:44:11;36.75;;;25.52;;
59555;SDS011;45374;52.746;6.304;2023-05-07T10:46:36;33.65;;;25.15;;
59555;SDS011;45374;52.746;6.304;2023-05-07T10:51:34;36.43;;;25.50;;
59555;SDS011;45374;52.746;6.304;2023-05-07T10:54:18;34.03;;;24.85;;
59555;SDS011;45374;52.746;6.304;2023-05-07T10:56:44;32.75;;;24.25;;
59555;SDS011;45374;52.746;6.304;2023-05-07T11:01:56;32.53;;;25.15;;
59555;SDS011;45374;52.746;6.304;2023-05-07T11:04:23;32.17;;;24.45;;
59555;SDS011;45374;52.746;6.304;2023-05-07T11:07:09;34.80;;;25.17;;
59555;SDS011;45374;52.746;6.304;2023-05-07T11:09:55;29.92;;;23.55;;
59555;SDS011;45374;52.746;6.304;2023-05-07T11:15:01;33.28;;;25.20;;
59555;SDS011;45374;52.746;6.304;2023-05-07T11:17:34;31.95;;;24.50;;
59555;SDS011;45374;52.746;6.304;2023-05-07T11:20:00;30.05;;;23.40;;
59555;SDS011;45374;52.746;6.304;2023-05-07T11:24:55;28.33;;;22.55;;
59555;SDS011;45374;52.746;6.304;2023-05-07T11:27:25;31.55;;;22.80;;
59555;SDS011;45374;52.746;6.304;2023-05-07T11:29:51;33.05;;;23.20;;
59555;SDS011;45374;52.746;6.304;2023-05-07T11:32:24;28.30;;;22.98;;
59555;SDS011;45374;52.746;6.304;2023-05-07T11:34:51;31.70;;;22.95;;
59555;SDS011;45374;52.746;6.304;2023-05-07T11:37:17;33.00;;;23.85;;
59555;SDS011;45374;52.746;6.304;2023-05-07T11:39:44;32.30;;;24.42;;
59555;SDS011;45374;52.746;6.304;2023-05-07T11:42:28;31.58;;;23.80;;
59555;SDS011;45374;52.746;6.304;2023-05-07T11:44:58;31.20;;;23.95;;
59555;SDS011;45374;52.746;6.304;2023-05-07T11:47:24;26.88;;;21.35;;
59555;SDS011;45374;52.746;6.304;2023-05-07T11:49:53;29.15;;;21.70;;
59555;SDS011;45374;52.746;6.304;2023-05-07T11:52:20;27.98;;;21.83;;
59555;SDS011;45374;52.746;6.304;2023-05-07T11:54:50;28.77;;;21.98;;
59555;SDS011;45374;52.746;6.304;2023-05-07T11:57:17;33.85;;;21.95;;
59555;SDS011;45374;52.746;6.304;2023-05-07T11:59:52;29.95;;;21.58;;
59555;SDS011;45374;52.746;6.304;2023-05-07T12:02:21;26.98;;;21.45;;
59555;SDS011;45374;52.746;6.304;2023-05-07T12:04:47;28.20;;;21.65;;
59555;SDS011;45374;52.746;6.304;2023-05-07T12:07:16;27.00;;;20.35;;
59555;SDS011;45374;52.746;6.304;2023-05-07T12:09:43;26.38;;;20.58;;
59555;SDS011;45374;52.746;6.304;2023-05-07T12:12:12;25.80;;;21.85;;
59555;SDS011;45374;52.746;6.304;2023-05-07T12:14:42;25.95;;;20.50;;
59555;SDS011;45374;52.746;6.304;2023-05-07T12:17:10;23.38;;;19.08;;
59555;SDS011;45374;52.746;6.304;2023-05-07T12:19:37;24.42;;;17.48;;
59555;SDS011;45374;52.746;6.304;2023-05-07T12:22:04;20.13;;;17.33;;
59555;SDS011;45374;52.746;6.304;2023-05-07T12:24:45;19.80;;;15.45;;
59555;SDS011;45374;52.746;6.304;2023-05-07T12:27:10;19.27;;;14.98;;
59555;SDS011;45374;52.746;6.304;2023-05-07T12:29:36;20.05;;;16.13;;
59555;SDS011;45374;52.746;6.304;2023-05-07T12:32:04;19.35;;;15.77;;
59555;SDS011;45374;52.746;6.304;2023-05-07T12:34:31;19.90;;;15.77;;
59555;SDS011;45374;52.746;6.304;2023-05-07T12:36:57;21.85;;;17.83;;
59555;SDS011;45374;52.746;6.304;2023-05-07T12:39:22;19.60;;;16.45;;
59555;SDS011;45374;52.746;6.304;2023-05-07T12:41:55;22.17;;;16.17;;
59555;SDS011;45374;52.746;6.304;2023-05-07T12:44:22;20.75;;;16.27;;
59555;SDS011;45374;52.746;6.304;2023-05-07T12:46:48;19.35;;;16.17;;
59555;SDS011;45374;52.746;6.304;2023-05-07T12:49:14;20.02;;;16.83;;
59555;SDS011;45374;52.746;6.304;2023-05-07T12:51:41;22.45;;;17.58;;
59555;SDS011;45374;52.746;6.304;2023-05-07T12:54:06;21.83;;;17.80;;
59555;SDS011;45374;52.746;6.304;2023-05-07T12:56:35;24.08;;;20.00;;
59555;SDS011;45374;52.746;6.304;2023-05-07T12:59:01;25.80;;;20.90;;
59555;SDS011;45374;52.746;6.304;2023-05-07T13:01:28;23.38;;;19.20;;
59555;SDS011;45374;52.746;6.304;2023-05-07T13:03:55;28.27;;;19.33;;
59555;SDS011;45374;52.746;6.304;2023-05-07T13:06:25;23.42;;;19.45;;
59555;SDS011;45374;52.746;6.304;2023-05-07T13:08:51;24.27;;;20.45;;
59555;SDS011;45374;52.746;6.304;2023-05-07T13:11:16;24.40;;;18.77;;
59555;SDS011;45374;52.746;6.304;2023-05-07T13:13:42;23.95;;;19.52;;
59555;SDS011;45374;52.746;6.304;2023-05-07T13:16:08;24.38;;;19.40;;
59555;SDS011;45374;52.746;6.304;2023-05-07T13:18:36;23.42;;;18.95;;
59555;SDS011;45374;52.746;6.304;2023-05-07T13:21:03;24.58;;;19.63;;
59555;SDS011;45374;52.746;6.304;2023-05-07T13:23:29;23.35;;;18.40;;
59555;SDS011;45374;52.746;6.304;2023-05-07T13:25:55;23.88;;;19.08;;
59555;SDS011;45374;52.746;6.304;2023-05-07T13:28:21;23.50;;;19.15;;
59555;SDS011;45374;52.746;6.304;2023-05-07T13:30:47;26.30;;;20.42;;
59555;SDS011;45374;52.746;6.304;2023-05-07T13:33:13;26.15;;;20.52;;
59555;SDS011;45374;52.746;6.304;2023-05-07T13:35:40;27.45;;;20.38;;
59555;SDS011;45374;52.746;6.304;2023-05-07T13:38:06;27.38;;;20.08;;
59555;SDS011;45374;52.746;6.304;2023-05-07T13:40:31;26.17;;;18.88;;
59555;SDS011;45374;52.746;6.304;2023-05-07T13:42:57;25.20;;;19.75;;
59555;SDS011;45374;52.746;6.304;2023-05-07T13:45:24;23.45;;;19.27;;
59555;SDS011;45374;52.746;6.304;2023-05-07T13:47:55;28.10;;;20.20;;
59555;SDS011;45374;52.746;6.304;2023-05-07T13:50:21;21.95;;;18.92;;
59555;SDS011;45374;52.746;6.304;2023-05-07T13:52:47;24.50;;;19.52;;
59555;SDS011;45374;52.746;6.304;2023-05-07T13:55:19;24.38;;;18.90;;
59555;SDS011;45374;52.746;6.304;2023-05-07T13:57:46;25.55;;;19.35;;
59555;SDS011;45374;52.746;6.304;2023-05-07T14:00:12;23.83;;;19.10;;
59555;SDS011;45374;52.746;6.304;2023-05-07T14:02:38;25.17;;;20.33;;
59555;SDS011;45374;52.746;6.304;2023-05-07T14:05:05;26.00;;;20.67;;
59555;SDS011;45374;52.746;6.304;2023-05-07T14:07:31;24.83;;;19.65;;
59555;SDS011;45374;52.746;6.304;2023-05-07T14:09:57;24.85;;;19.67;;
59555;SDS011;45374;52.746;6.304;2023-05-07T14:12:22;28.30;;;20.63;;
59555;SDS011;45374;52.746;6.304;2023-05-07T14:14:48;24.80;;;19.98;;
59555;SDS011;45374;52.746;6.304;2023-05-07T14:17:15;25.40;;;19.65;;
59555;SDS011;45374;52.746;6.304;2023-05-07T14:19:41;24.02;;;19.80;;
59555;SDS011;45374;52.746;6.304;2023-05-07T14:22:07;23.85;;;19.15;;
59555;SDS011;45374;52.746;6.304;2023-05-07T14:24:33;23.95;;;19.90;;
59555;SDS011;45374;52.746;6.304;2023-05-07T14:26:59;23.35;;;18.95;;
59555;SDS011;45374;52.746;6.304;2023-05-07T14:29:25;22.90;;;17.88;;
59555;SDS011;45374;52.746;6.304;2023-05-07T14:31:50;23.25;;;18.20;;
59555;SDS011;45374;52.746;6.304;2023-05-07T14:34:16;22.52;;;18.13;;
59555;SDS011;45374;52.746;6.304;2023-05-07T14:36:41;21.05;;;17.35;;
59555;SDS011;45374;52.746;6.304;2023-05-07T14:39:08;21.75;;;17.20;;